Deep River, Connecticut
Current Conditions -  °F | °C
As of 10:15 AM on Monday 24 Nov 2014 (Local Time) from KSNC Reporting Station
Drizzle Drizzle  
Wind Chill: 61°   Ceiling: 200
Heat Index: 61°   Visibility: 1.2mi
Dew Point: 61°   Wind: 14mph
Humidity: 100%   Direction: 200°SSW
Pressure: 29.72"   Gusts: 23mph
Location:  41.39°N, 72.44°W
Report Text: KSNC 241515Z AUTO 20012G20KT 1 1/4SM -DZ OVC002 16/16 A2972 RMK AO2 P0001
Loading
Personal Weather Stations






























Interactive Weather Map New forecast layout! Learn more

10-Day Weather Forecast

Advertisements
Track Severe Weather on mobile